Time;durP1;ratioP1;P1;durP2;ratioP2;P2;SDS_P1;SDS_P2;PMS_P1;PMS_P2;Temp;Humidity;BMP_temperature;BMP_pressure;BME280_temperature;BME280_humidity;BME280_pressure;Samples;Min_cycle;Max_cycle;Signal;HPM_P1;HPM_P2
2023/03/21 00:00:06;;;;;;;;;;;;;;;15.12;71.06;101274.34;1256492;23;621;-68
2023/03/21 00:00:56;;;;;;;;;;;;;;;15.13;71.33;101273.38;1253608;23;681;-68
2023/03/21 00:01:47;;;;;;;;;;;;;;;15.12;71.13;101275.22;1255813;23;543;-68
2023/03/21 00:02:37;;;;;;;;;;;;;;;15.11;71.16;101272.66;1255633;23;669;-68
2023/03/21 00:03:27;;;;;;;;;;;;;;;15.11;71.25;101273.50;1256257;23;611;-68
2023/03/21 00:04:18;;;;;;;;;;;;;;;15.11;71.16;101273.50;1256193;23;677;-67
2023/03/21 00:05:08;;;;;;;;;;;;;;;15.12;70.75;101269.00;1256091;23;641;-68
2023/03/21 00:05:59;;;;;;;;;;;;;;;15.11;70.92;101272.66;1256332;23;618;-68
2023/03/21 00:06:49;;;;;;;;;;;;;;;15.10;71.28;101270.94;1256373;23;618;-68
2023/03/21 00:07:40;;;;;;;;;;;;;;;15.08;71.14;101265.69;1256509;23;645;-68
2023/03/21 00:08:30;;;;;;;;;;;;;;;15.07;71.47;101263.09;1256361;23;677;-68
2023/03/21 00:09:21;;;;;;;;;;;;;;;15.07;70.89;101266.66;1256262;23;657;-68
2023/03/21 00:10:11;;;;;;;;;;;;;;;15.07;71.02;101272.03;1253844;23;1926;-68
2023/03/21 00:11:01;;;;;;;;;;;;;;;15.07;70.99;101265.78;1256181;23;700;-68
2023/03/21 00:11:52;;;;;;;;;;;;;;;15.07;71.29;101268.47;1256025;23;638;-68
2023/03/21 00:12:42;;;;;;;;;;;;;;;15.07;71.13;101263.09;1256261;23;638;-68
2023/03/21 00:13:33;;;;;;;;;;;;;;;15.08;71.36;101260.31;1253739;23;658;-68
2023/03/21 00:14:24;;;;;;;;;;;;;;;15.09;70.79;101266.53;1256321;23;666;-68
2023/03/21 00:15:17;;;;;;;;;;;;;;;15.09;71.06;101269.22;1256449;23;674;-68
2023/03/21 00:16:08;;;;;;;;;;;;;;;15.09;71.03;101269.22;1256195;23;551;-68
2023/03/21 00:16:59;;;;;;;;;;;;;;;15.08;71.02;101263.00;1253056;23;657;-67
2023/03/21 00:17:50;;;;;;;;;;;;;;;15.08;71.17;101270.19;1256222;23;610;-66
2023/03/21 00:18:40;;;;;;;;;;;;;;;15.09;70.93;101267.38;1256108;23;657;-67
2023/03/21 00:19:31;;;;;;;;;;;;;;;15.09;71.00;101263.84;1256161;23;625;-67
2023/03/21 00:20:22;;;;;;;;;;;;;;;15.10;71.00;101262.88;1256208;23;665;-69
2023/03/21 00:21:14;;;;;;;;;;;;;;;15.09;71.27;101263.84;1256116;23;685;-68
2023/03/21 00:22:05;;;;;;;;;;;;;;;15.11;71.02;101261.91;1256332;23;669;-68
2023/03/21 00:22:55;;;;;;;;;;;;;;;15.10;71.08;101260.19;1254190;23;572;-68
2023/03/21 00:23:46;;;;;;;;;;;;;;;15.08;71.15;101259.44;1256480;23;623;-68
2023/03/21 00:24:36;;;;;;;;;;;;;;;15.09;71.03;101261.16;1256288;23;669;-68
2023/03/21 00:25:27;;;;;;;;;;;;;;;15.09;71.13;101258.47;1255638;23;555;-68
2023/03/21 00:26:17;;;;;;;;;;;;;;;15.10;71.12;101265.56;1256281;23;653;-67
2023/03/21 00:27:07;;;;;;;;;;;;;;;15.08;71.22;101265.69;1256449;23;798;-67
2023/03/21 00:27:58;;;;;;;;;;;;;;;15.08;71.40;101259.44;1256176;23;613;-67
2023/03/21 00:28:49;;;;;;;;;;;;;;;15.06;71.23;101261.41;1255973;23;601;-67
2023/03/21 00:29:39;;;;;;;;;;;;;;;15.07;71.13;101255.06;1256055;23;765;-67
2023/03/21 00:30:29;;;;;;;;;;;;;;;15.07;71.20;101255.91;1256133;23;633;-67
2023/03/21 00:31:20;;;;;;;;;;;;;;;15.07;71.16;101258.59;1255774;23;629;-67
2023/03/21 00:32:10;;;;;;;;;;;;;;;15.07;71.56;101257.75;1253822;23;700;-67
2023/03/21 00:33:01;;;;;;;;;;;;;;;15.06;71.16;101261.41;1260240;23;629;-68
2023/03/21 00:33:51;;;;;;;;;;;;;;;15.06;71.38;101256.88;1264916;23;621;-67
2023/03/21 00:34:42;;;;;;;;;;;;;;;15.05;71.19;101260.53;1270068;23;649;-67
2023/03/21 00:35:32;;;;;;;;;;;;;;;15.06;71.05;101256.03;1265433;23;649;-67
2023/03/21 00:36:24;;;;;;;;;;;;;;;15.06;71.35;101264.09;1267633;23;651;-67
2023/03/21 00:37:16;;;;;;;;;;;;;;;15.05;71.27;101252.50;1268472;23;677;-67
2023/03/21 00:38:06;;;;;;;;;;;;;;;15.04;71.51;101255.31;1268412;23;657;-67
2023/03/21 00:38:57;;;;;;;;;;;;;;;15.04;71.37;101253.50;1267543;23;605;-67
2023/03/21 00:39:48;;;;;;;;;;;;;;;15.05;71.50;101251.66;1267473;23;637;-68
2023/03/21 00:40:38;;;;;;;;;;;;;;;15.06;70.96;101247.97;1268022;23;637;-67
2023/03/21 00:41:29;;;;;;;;;;;;;;;15.07;71.15;101255.06;1267456;23;601;-67
2023/03/21 00:42:19;;;;;;;;;;;;;;;15.07;71.69;101250.53;1267241;23;687;-67
2023/03/21 00:43:22;;;;;;;;;;;;;;;15.06;71.51;101246.16;1268594;23;613;-67
2023/03/21 00:44:14;;;;;;;;;;;;;;;15.08;71.54;101252.25;1268117;23;640;-67
2023/03/21 00:45:06;;;;;;;;;;;;;;;15.07;71.18;101244.31;1268232;23;645;-67
2023/03/21 00:45:57;;;;;;;;;;;;;;;15.07;71.62;101244.31;1266836;23;672;-67
2023/03/21 00:46:47;;;;;;;;;;;;;;;15.06;71.94;101242.59;1268081;23;621;-67
2023/03/21 00:47:38;;;;;;;;;;;;;;;15.08;71.04;101249.56;1267696;23;648;-67
2023/03/21 00:48:28;;;;;;;;;;;;;;;15.05;71.18;101246.31;1267379;23;613;-67
2023/03/21 00:49:22;;;;;;;;;;;;;;;15.05;71.25;101246.31;1267446;23;645;-68
2023/03/21 00:50:12;;;;;;;;;;;;;;;15.05;71.43;101239.06;1267369;23;1897;-68
2023/03/21 00:51:03;;;;;;;;;;;;;;;15.05;71.24;101244.44;1268332;23;641;-68
2023/03/21 00:51:53;;;;;;;;;;;;;;;15.05;71.20;101240.94;1267526;23;764;-68
2023/03/21 00:52:43;;;;;;;;;;;;;;;15.07;71.30;101241.63;1267350;23;645;-68
2023/03/21 00:53:34;;;;;;;;;;;;;;;15.06;71.12;101242.59;1267501;23;609;-68
2023/03/21 00:54:24;;;;;;;;;;;;;;;15.05;71.01;101235.56;1267542;23;727;-68
2023/03/21 00:55:15;;;;;;;;;;;;;;;15.05;71.54;101238.25;1267211;23;649;-68
2023/03/21 00:56:05;;;;;;;;;;;;;;;15.05;71.03;101232.88;1267026;23;617;-68
2023/03/21 00:56:56;;;;;;;;;;;;;;;15.05;71.16;101235.56;1267195;23;605;-68
2023/03/21 00:57:46;;;;;;;;;;;;;;;15.03;71.01;101232.13;1267248;23;621;-68
2023/03/21 00:58:37;;;;;;;;;;;;;;;15.04;71.34;101228.47;1267404;23;569;-67
2023/03/21 00:59:27;;;;;;;;;;;;;;;15.04;71.34;101225.81;1267692;23;617;-67
2023/03/21 01:00:18;;;;;;;;;;;;;;;15.05;71.25;101235.56;1267532;23;723;-68
2023/03/21 01:01:08;;;;;;;;;;;;;;;15.04;71.21;101228.47;1267370;23;916;-67
2023/03/21 01:01:59;;;;;;;;;;;;;;;15.05;71.49;101224.81;1267485;23;683;-67
2023/03/21 01:02:55;;;;;;;;;;;;;;;15.06;71.04;101231.88;1264148;23;633;-67
2023/03/21 01:03:49;;;;;;;;;;;;;;;15.07;71.21;101228.22;1267232;23;727;-67
2023/03/21 01:04:40;;;;;;;;;;;;;;;15.07;71.00;101222.84;1268156;23;645;-67
2023/03/21 01:06:39;;;;;;;;;;;;;;;15.04;71.55;101220.44;1271485;23;606;-67
2023/03/21 01:07:30;;;;;;;;;;;;;;;15.05;71.42;101222.97;1264771;23;645;-67
2023/03/21 01:08:20;;;;;;;;;;;;;;;15.03;71.81;101216.88;1267241;23;625;-67
2023/03/21 01:09:11;;;;;;;;;;;;;;;15.04;71.41;101218.59;1267449;23;640;-67
2023/03/21 01:10:01;;;;;;;;;;;;;;;15.03;71.58;101211.53;1267330;23;1924;-67
2023/03/21 01:10:51;;;;;;;;;;;;;;;15.02;71.74;101214.31;1267185;23;610;-67
2023/03/21 01:11:42;;;;;;;;;;;;;;;15.01;71.76;101207.25;1267241;23;598;-67
2023/03/21 01:12:32;;;;;;;;;;;;;;;15.01;71.57;101210.78;1267271;23;597;-67
2023/03/21 01:13:23;;;;;;;;;;;;;;;15.00;71.36;101211.75;1267585;23;616;-67
2023/03/21 01:14:13;;;;;;;;;;;;;;;15.00;71.49;101206.38;1267218;23;617;-67
2023/03/21 01:15:04;;;;;;;;;;;;;;;15.00;71.22;101210.91;1266681;23;602;-67
2023/03/21 01:15:54;;;;;;;;;;;;;;;15.00;71.45;101216.25;1267173;23;683;-68
2023/03/21 01:16:45;;;;;;;;;;;;;;;15.01;71.55;101207.25;1267315;23;631;-67
2023/03/21 01:17:35;;;;;;;;;;;;;;;15.02;71.56;101207.13;1267125;23;602;-67
2023/03/21 01:18:26;;;;;;;;;;;;;;;15.01;71.10;101201.88;1267418;23;617;-68
2023/03/21 01:19:16;;;;;;;;;;;;;;;15.02;71.34;101214.31;1268099;23;653;-67
2023/03/21 01:20:07;;;;;;;;;;;;;;;15.03;71.45;101210.66;1267292;23;791;-68
2023/03/21 01:20:57;;;;;;;;;;;;;;;15.02;71.71;101199.06;1267265;23;606;-68
2023/03/21 01:21:47;;;;;;;;;;;;;;;15.03;71.62;101199.94;1267116;23;856;-68
2023/03/21 01:22:38;;;;;;;;;;;;;;;15.03;71.34;101199.94;1267386;23;597;-68
2023/03/21 01:23:28;;;;;;;;;;;;;;;15.01;71.57;101200.03;1267263;23;640;-67
2023/03/21 01:24:19;;;;;;;;;;;;;;;15.02;71.21;101200.91;1267159;23;605;-68
2023/03/21 01:25:09;;;;;;;;;;;;;;;15.00;71.36;101205.53;1267330;23;625;-68
2023/03/21 01:26:00;;;;;;;;;;;;;;;15.00;71.15;101205.53;1267450;23;641;-68
2023/03/21 01:26:50;;;;;;;;;;;;;;;14.99;71.47;101202.00;1267335;23;633;-67
2023/03/21 01:27:40;;;;;;;;;;;;;;;15.00;71.37;101200.16;1267538;23;640;-67
2023/03/21 01:28:31;;;;;;;;;;;;;;;15.01;71.40;101196.50;1267502;23;652;-68
2023/03/21 01:29:21;;;;;;;;;;;;;;;15.01;71.50;101204.56;1266695;23;624;-67
2023/03/21 01:30:12;;;;;;;;;;;;;;;15.00;71.22;101186.75;1266964;23;1877;-68
2023/03/21 01:31:02;;;;;;;;;;;;;;;14.99;71.34;101198.44;1267259;23;626;-68
2023/03/21 01:31:54;;;;;;;;;;;;;;;14.99;71.49;101193.09;1267077;23;657;-68
2023/03/21 01:32:44;;;;;;;;;;;;;;;14.98;71.15;101192.22;1267816;23;1287;-67
2023/03/21 01:33:35;;;;;;;;;;;;;;;15.00;71.14;101189.44;1267235;23;629;-67
2023/03/21 01:34:28;;;;;;;;;;;;;;;15.00;71.11;101189.44;1267268;23;625;-68
2023/03/21 01:35:19;;;;;;;;;;;;;;;14.99;71.41;101190.41;1268216;23;704;-67
2023/03/21 01:36:09;;;;;;;;;;;;;;;14.99;71.00;101195.78;1267475;23;625;-67
2023/03/21 01:37:00;;;;;;;;;;;;;;;15.01;70.95;101196.50;1267419;23;613;-68
2023/03/21 01:37:50;;;;;;;;;;;;;;;15.01;71.14;101191.13;1267149;23;605;-67
2023/03/21 01:38:41;;;;;;;;;;;;;;;15.01;71.14;101192.00;1267239;23;641;-67
2023/03/21 01:39:33;;;;;;;;;;;;;;;15.02;70.88;101190.16;1267131;23;604;-67
2023/03/21 01:40:24;;;;;;;;;;;;;;;15.04;71.11;101190.91;1268025;23;620;-67
2023/03/21 01:41:14;;;;;;;;;;;;;;;15.02;71.19;101187.47;1267161;23;692;-68
2023/03/21 01:42:05;;;;;;;;;;;;;;;15.02;71.26;101193.72;1267052;23;601;-68
2023/03/21 01:42:55;;;;;;;;;;;;;;;15.01;71.00;101199.19;1267094;23;762;-67
2023/03/21 01:43:46;;;;;;;;;;;;;;;15.00;71.17;101192.13;1268218;23;609;-67
2023/03/21 01:44:36;;;;;;;;;;;;;;;15.00;71.31;101181.38;1267146;23;617;-68
2023/03/21 01:45:27;;;;;;;;;;;;;;;15.00;71.56;101181.38;1267148;23;657;-68
2023/03/21 01:46:20;;;;;;;;;;;;;;;15.00;71.20;101174.19;1267197;23;684;-68
2023/03/21 01:47:10;;;;;;;;;;;;;;;15.01;70.80;101175.91;1267482;23;624;-67
2023/03/21 01:48:01;;;;;;;;;;;;;;;15.02;71.09;101177.59;1267428;23;655;-67
2023/03/21 01:48:51;;;;;;;;;;;;;;;15.01;71.09;101175.91;1267121;23;633;-68
2023/03/21 01:49:44;;;;;;;;;;;;;;;15.01;70.87;101175.03;1267177;23;613;-68
2023/03/21 01:50:35;;;;;;;;;;;;;;;15.01;71.10;101175.03;1268041;23;605;-68
2023/03/21 01:51:26;;;;;;;;;;;;;;;15.01;71.07;101172.34;1265346;23;633;-68
2023/03/21 01:52:16;;;;;;;;;;;;;;;15.01;70.98;101175.03;1267463;23;616;-68
2023/03/21 01:53:07;;;;;;;;;;;;;;;15.01;70.71;101183.09;1267358;23;660;-68
2023/03/21 01:53:59;;;;;;;;;;;;;;;15.02;71.20;101171.38;1267260;23;668;-67
2023/03/21 01:54:49;;;;;;;;;;;;;;;15.03;71.01;101167.72;1267937;23;610;-68
2023/03/21 01:55:40;;;;;;;;;;;;;;;15.03;70.70;101167.72;1267291;23;593;-67
2023/03/21 01:56:30;;;;;;;;;;;;;;;15.02;70.72;101171.38;1267411;23;635;-68
2023/03/21 01:57:21;;;;;;;;;;;;;;;15.01;70.75;101167.84;1267467;23;602;-67
2023/03/21 01:58:12;;;;;;;;;;;;;;;14.99;71.04;101169.78;1267356;23;621;-68
2023/03/21 01:59:03;;;;;;;;;;;;;;;15.01;70.61;101169.66;1268250;23;1049;-68
2023/03/21 01:59:53;;;;;;;;;;;;;;;15.01;70.84;101175.03;1267329;23;641;-68
2023/03/21 02:00:44;;;;;;;;;;;;;;;15.01;70.66;101172.34;1267104;23;641;-67
2023/03/21 02:01:37;;;;;;;;;;;;;;;15.01;70.73;101170.53;1267345;23;699;-67
2023/03/21 02:02:27;;;;;;;;;;;;;;;15.02;70.67;101160.66;1267915;23;628;-68
2023/03/21 02:03:18;;;;;;;;;;;;;;;15.03;71.06;101159.66;1267203;23;625;-67
2023/03/21 02:04:08;;;;;;;;;;;;;;;15.01;71.00;101165.16;1266975;23;598;-67
2023/03/21 02:04:58;;;;;;;;;;;;;;;15.02;70.72;101160.66;1267180;23;672;-67
2023/03/21 02:05:49;;;;;;;;;;;;;;;15.02;71.07;101163.31;1267206;23;619;-67
2023/03/21 02:06:39;;;;;;;;;;;;;;;15.02;70.66;101161.50;1267412;23;621;-67
2023/03/21 02:07:30;;;;;;;;;;;;;;;14.99;70.83;101160.88;1267113;23;700;-67
2023/03/21 02:08:20;;;;;;;;;;;;;;;14.97;70.97;101152.94;1264537;23;653;-67
2023/03/21 02:09:11;;;;;;;;;;;;;;;14.98;71.16;101156.47;1267147;23;593;-67
2023/03/21 02:10:03;;;;;;;;;;;;;;;14.99;70.85;101158.19;1266978;23;1930;-67
2023/03/21 02:10:54;;;;;;;;;;;;;;;14.99;70.86;101148.31;1268062;23;672;-67
2023/03/21 02:11:45;;;;;;;;;;;;;;;14.99;71.11;101155.50;1267026;23;668;-67
2023/03/21 02:12:37;;;;;;;;;;;;;;;15.00;70.88;101154.53;1267881;23;626;-67
2023/03/21 02:13:27;;;;;;;;;;;;;;;14.99;70.87;101151.00;1267967;23;673;-67
2023/03/21 02:14:18;;;;;;;;;;;;;;;15.00;70.71;101151.84;1267094;23;631;-67
2023/03/21 02:15:08;;;;;;;;;;;;;;;14.98;70.97;101148.44;1267431;23;601;-67
2023/03/21 02:15:59;;;;;;;;;;;;;;;14.97;70.80;101147.56;1267409;23;641;-67
2023/03/21 02:16:49;;;;;;;;;;;;;;;14.97;70.99;101152.09;1267121;23;661;-67
2023/03/21 02:17:39;;;;;;;;;;;;;;;14.97;71.00;101144.03;1267164;23;618;-67
2023/03/21 02:18:30;;;;;;;;;;;;;;;14.96;71.04;101145.88;1267276;23;665;-67
2023/03/21 02:19:20;;;;;;;;;;;;;;;14.97;71.06;101146.72;1267372;23;617;-67
2023/03/21 02:20:11;;;;;;;;;;;;;;;14.97;70.97;101144.91;1267043;23;624;-67
2023/03/21 02:21:01;;;;;;;;;;;;;;;14.97;71.18;101135.97;1267163;23;683;-67
2023/03/21 02:21:52;;;;;;;;;;;;;;;14.98;70.90;101140.38;1267180;23;648;-67
2023/03/21 02:22:42;;;;;;;;;;;;;;;14.97;70.85;101135.97;1267347;23;678;-67
2023/03/21 02:23:32;;;;;;;;;;;;;;;14.96;70.90;101139.66;1267387;23;659;-67
2023/03/21 02:24:23;;;;;;;;;;;;;;;14.94;70.90;101137.94;1267425;23;616;-67
2023/03/21 02:25:14;;;;;;;;;;;;;;;14.95;71.05;101138.78;1267263;23;629;-67
2023/03/21 02:26:05;;;;;;;;;;;;;;;14.97;71.26;101135.97;1268050;23;648;-68
2023/03/21 02:26:55;;;;;;;;;;;;;;;14.97;70.84;101134.16;1264001;23;630;-67
2023/03/21 02:27:46;;;;;;;;;;;;;;;14.96;70.92;101136.97;1266506;23;588;-67
2023/03/21 02:28:36;;;;;;;;;;;;;;;14.96;71.03;101134.28;1267129;23;644;-67
2023/03/21 02:29:27;;;;;;;;;;;;;;;14.97;70.69;101135.97;1267086;23;649;-67
2023/03/21 02:30:17;;;;;;;;;;;;;;;14.96;70.76;101131.59;1267310;23;1881;-67
2023/03/21 02:31:08;;;;;;;;;;;;;;;14.96;70.82;101134.28;1267279;23;653;-67
2023/03/21 02:31:58;;;;;;;;;;;;;;;14.96;71.14;101139.66;1267135;23;640;-67
2023/03/21 02:32:48;;;;;;;;;;;;;;;14.93;71.09;101133.53;1266933;23;1031;-67
2023/03/21 02:33:40;;;;;;;;;;;;;;;14.94;70.98;101132.56;1267067;23;648;-68
2023/03/21 02:34:30;;;;;;;;;;;;;;;14.93;70.93;101138.91;1263709;23;598;-67
2023/03/21 02:35:21;;;;;;;;;;;;;;;14.93;71.21;101133.53;1268027;23;605;-68
2023/03/21 02:36:11;;;;;;;;;;;;;;;14.94;71.05;101120.97;1267021;23;661;-67
2023/03/21 02:37:02;;;;;;;;;;;;;;;14.93;71.08;101130.84;1267002;23;624;-67
2023/03/21 02:37:52;;;;;;;;;;;;;;;14.92;71.29;101134.50;1266979;23;836;-67
2023/03/21 02:38:42;;;;;;;;;;;;;;;14.92;71.07;101134.50;1267199;23;668;-67
2023/03/21 02:39:33;;;;;;;;;;;;;;;14.92;71.17;101128.28;1267155;23;575;-68
2023/03/21 02:40:23;;;;;;;;;;;;;;;14.94;70.95;101134.41;1266971;23;710;-68
2023/03/21 02:41:14;;;;;;;;;;;;;;;14.94;70.96;101126.34;1267115;23;640;-68
2023/03/21 02:42:04;;;;;;;;;;;;;;;14.93;71.16;101130.84;1266709;23;625;-67
2023/03/21 02:42:55;;;;;;;;;;;;;;;14.93;71.15;101128.16;1267318;23;683;-67
2023/03/21 02:43:45;;;;;;;;;;;;;;;14.93;70.98;101119.25;1267060;23;605;-67
2023/03/21 02:44:35;;;;;;;;;;;;;;;14.94;71.45;101129.88;1267071;23;621;-67
2023/03/21 02:45:26;;;;;;;;;;;;;;;14.94;70.84;101129.88;1267125;23;652;-66
2023/03/21 02:46:16;;;;;;;;;;;;;;;14.93;71.23;101128.16;1267153;23;664;-66
2023/03/21 02:47:07;;;;;;;;;;;;;;;14.93;71.24;101125.50;1267008;23;649;-68
2023/03/21 02:47:57;;;;;;;;;;;;;;;14.96;71.03;101120.84;1267310;23;784;-68
2023/03/21 02:48:48;;;;;;;;;;;;;;;14.95;70.69;101122.69;1266467;23;649;-66
2023/03/21 02:49:40;;;;;;;;;;;;;;;14.96;70.75;101123.53;1267375;23;641;-67
2023/03/21 02:50:31;;;;;;;;;;;;;;;14.97;70.95;101119.88;1267262;23;696;-66
2023/03/21 02:51:21;;;;;;;;;;;;;;;14.94;70.75;101116.47;1267217;23;632;-66
2023/03/21 02:52:11;;;;;;;;;;;;;;;14.93;71.28;101128.16;1267269;23;653;-68
2023/03/21 02:53:02;;;;;;;;;;;;;;;14.93;70.70;101121.94;1267253;23;621;-66
2023/03/21 02:53:52;;;;;;;;;;;;;;;14.92;70.72;101123.78;1267271;23;617;-68
2023/03/21 02:54:43;;;;;;;;;;;;;;;14.92;71.18;101115.72;1267339;23;609;-66
2023/03/21 02:55:33;;;;;;;;;;;;;;;14.92;71.03;101117.56;1267276;23;668;-66
2023/03/21 02:56:24;;;;;;;;;;;;;;;14.94;70.62;101119.16;1266731;23;661;-68
2023/03/21 02:57:15;;;;;;;;;;;;;;;14.94;70.69;101121.84;1265440;23;653;-68
2023/03/21 02:58:05;;;;;;;;;;;;;;;14.96;70.67;101123.53;1267301;23;637;-66
2023/03/21 02:58:56;;;;;;;;;;;;;;;14.93;70.78;101119.25;1267342;23;618;-68
2023/03/21 02:59:46;;;;;;;;;;;;;;;14.93;70.77;101117.44;1267260;23;613;-68
2023/03/21 03:00:37;;;;;;;;;;;;;;;14.93;70.86;101120.13;1267200;23;673;-68
2023/03/21 03:01:27;;;;;;;;;;;;;;;14.91;70.92;101114.00;1267335;23;656;-68
2023/03/21 03:02:18;;;;;;;;;;;;;;;14.90;71.15;101109.63;1268141;23;606;-68
2023/03/21 03:03:08;;;;;;;;;;;;;;;14.91;70.96;101114.00;1267316;23;616;-68
2023/03/21 03:03:59;;;;;;;;;;;;;;;14.93;70.76;101117.44;1267263;23;664;-68
2023/03/21 03:04:49;;;;;;;;;;;;;;;14.94;71.09;101113.78;1267215;23;605;-67
2023/03/21 03:05:40;;;;;;;;;;;;;;;14.93;70.98;101106.69;1267340;23;656;-68
2023/03/21 03:06:32;;;;;;;;;;;;;;;14.93;70.94;101113.91;1267085;23;632;-68
2023/03/21 03:07:23;;;;;;;;;;;;;;;14.92;70.63;101105.00;1268090;23;683;-68
2023/03/21 03:08:13;;;;;;;;;;;;;;;14.91;70.71;101105.13;1263907;23;606;-68
2023/03/21 03:09:03;;;;;;;;;;;;;;;14.91;70.68;101105.13;1267281;23;645;-68
2023/03/21 03:09:54;;;;;;;;;;;;;;;14.90;70.94;101109.63;1267099;23;704;-68
2023/03/21 03:10:45;;;;;;;;;;;;;;;14.90;70.91;101109.63;1264299;23;681;-68
2023/03/21 03:11:35;;;;;;;;;;;;;;;14.91;70.80;101105.13;1268065;23;831;-68
2023/03/21 03:12:26;;;;;;;;;;;;;;;14.92;70.95;101114.88;1273099;23;602;-68
2023/03/21 03:13:16;;;;;;;;;;;;;;;14.92;71.15;101109.50;1270384;23;961;-68
2023/03/21 03:14:06;;;;;;;;;;;;;;;14.92;71.16;101107.69;1265160;23;629;-68
2023/03/21 03:14:57;;;;;;;;;;;;;;;14.90;70.71;101104.25;1267259;23;672;-68
2023/03/21 03:15:49;;;;;;;;;;;;;;;14.87;71.18;101109.84;1268196;23;586;-68
2023/03/21 03:16:39;;;;;;;;;;;;;;;14.88;70.83;101111.56;1264240;23;625;-68
2023/03/21 03:17:30;;;;;;;;;;;;;;;14.88;70.88;101108.88;1267284;23;606;-68
2023/03/21 03:18:20;;;;;;;;;;;;;;;14.88;71.03;101111.56;1267246;23;617;-68
2023/03/21 03:19:11;;;;;;;;;;;;;;;14.87;71.21;101107.19;1267157;23;657;-68
2023/03/21 03:20:03;;;;;;;;;;;;;;;14.89;70.92;101102.53;1268384;23;617;-68
2023/03/21 03:20:53;;;;;;;;;;;;;;;14.90;70.89;101106.94;1268458;23;640;-68
2023/03/21 03:21:44;;;;;;;;;;;;;;;14.91;71.04;101111.34;1267806;23;619;-68
2023/03/21 03:22:34;;;;;;;;;;;;;;;14.90;71.25;101108.78;1267778;23;614;-67
2023/03/21 03:23:25;;;;;;;;;;;;;;;14.88;70.98;101106.19;1267475;23;613;-68
2023/03/21 03:24:15;;;;;;;;;;;;;;;14.87;70.94;101107.19;1267626;23;645;-67
2023/03/21 03:25:06;;;;;;;;;;;;;;;14.88;71.01;101100.84;1267604;23;621;-68
2023/03/21 03:25:56;;;;;;;;;;;;;;;14.88;71.27;101100.84;1267686;23;613;-68
2023/03/21 03:26:46;;;;;;;;;;;;;;;14.89;70.99;101102.53;1267837;23;637;-68
2023/03/21 03:27:37;;;;;;;;;;;;;;;14.89;71.32;101096.31;1267683;23;601;-68
2023/03/21 03:28:27;;;;;;;;;;;;;;;14.89;71.18;101102.53;1267724;23;636;-68
2023/03/21 03:29:18;;;;;;;;;;;;;;;14.90;71.22;101100.72;1267694;23;598;-68
2023/03/21 03:30:09;;;;;;;;;;;;;;;14.91;71.04;101097.91;1267631;23;1944;-68
2023/03/21 03:30:59;;;;;;;;;;;;;;;14.91;71.12;101099.75;1268439;23;645;-68
2023/03/21 03:31:50;;;;;;;;;;;;;;;14.91;71.11;101091.69;1267694;23;598;-68
2023/03/21 03:32:43;;;;;;;;;;;;;;;14.91;71.01;101097.06;1267547;23;1209;-68
2023/03/21 03:33:34;;;;;;;;;;;;;;;14.89;71.12;101097.19;1268478;23;626;-68
2023/03/21 03:34:25;;;;;;;;;;;;;;;14.89;71.05;101093.63;1267672;23;673;-68
2023/03/21 03:35:16;;;;;;;;;;;;;;;14.89;70.89;101097.19;1267680;23;706;-68
2023/03/21 03:36:06;;;;;;;;;;;;;;;14.90;71.27;101096.22;1268456;23;634;-68
2023/03/21 03:36:57;;;;;;;;;;;;;;;14.90;70.89;101100.72;1267607;23;554;-68
2023/03/21 03:37:47;;;;;;;;;;;;;;;14.89;71.21;101105.22;1267690;23;605;-68
2023/03/21 03:38:38;;;;;;;;;;;;;;;14.88;71.15;101099.97;1267663;23;668;-66
2023/03/21 03:39:28;;;;;;;;;;;;;;;14.85;70.95;101098.41;1267686;23;645;-68
2023/03/21 03:40:19;;;;;;;;;;;;;;;14.86;71.27;101092.09;1267077;23;676;-68
2023/03/21 03:41:09;;;;;;;;;;;;;;;14.86;71.44;101097.44;1267653;23;649;-68
2023/03/21 03:42:00;;;;;;;;;;;;;;;14.87;71.46;101093.75;1265793;23;638;-68
2023/03/21 03:42:50;;;;;;;;;;;;;;;14.88;71.22;101094.63;1267608;23;605;-68
2023/03/21 03:43:41;;;;;;;;;;;;;;;14.85;71.18;101090.38;1267741;23;609;-68
2023/03/21 03:44:32;;;;;;;;;;;;;;;14.85;71.01;101090.38;1267679;23;730;-68
2023/03/21 03:45:22;;;;;;;;;;;;;;;14.85;71.36;101092.19;1268497;23;661;-68
2023/03/21 03:46:13;;;;;;;;;;;;;;;14.85;71.56;101097.56;1267660;23;668;-68
2023/03/21 03:47:03;;;;;;;;;;;;;;;14.84;71.17;101094.03;1267612;23;598;-68
2023/03/21 03:47:53;;;;;;;;;;;;;;;14.84;71.28;101090.50;1267587;23;803;-68
2023/03/21 03:48:45;;;;;;;;;;;;;;;14.84;71.19;101088.66;1267841;23;668;-68
2023/03/21 03:49:35;;;;;;;;;;;;;;;14.85;70.96;101089.53;1268469;23;649;-68
2023/03/21 03:50:26;;;;;;;;;;;;;;;14.84;71.27;101082.44;1267866;23;1909;-68
2023/03/21 03:51:16;;;;;;;;;;;;;;;14.85;71.32;101087.69;1267773;23;621;-68
2023/03/21 03:52:07;;;;;;;;;;;;;;;14.85;70.44;101082.31;1267906;23;612;-66
2023/03/21 03:52:57;;;;;;;;;;;;;;;14.85;70.74;101082.31;1267629;23;847;-68
2023/03/21 03:53:48;;;;;;;;;;;;;;;14.87;71.27;101087.53;1267744;23;625;-68
2023/03/21 03:54:38;;;;;;;;;;;;;;;14.87;70.81;101093.75;1267182;23;597;-68
2023/03/21 03:55:33;;;;;;;;;;;;;;;14.88;71.14;101086.56;1267744;23;637;-68
2023/03/21 03:56:24;;;;;;;;;;;;;;;14.87;71.11;101085.72;1268504;23;605;-68
2023/03/21 03:57:14;;;;;;;;;;;;;;;14.88;71.18;101087.41;1268534;23;673;-68
2023/03/21 03:58:05;;;;;;;;;;;;;;;14.86;71.04;101085.88;1268533;23;601;-68
2023/03/21 03:58:55;;;;;;;;;;;;;;;14.86;71.00;101085.88;1267599;23;656;-68
2023/03/21 03:59:46;;;;;;;;;;;;;;;14.85;70.97;101085.00;1267644;23;625;-68
2023/03/21 04:00:36;;;;;;;;;;;;;;;14.84;70.88;101080.63;1267660;23;661;-68
2023/03/21 04:01:27;;;;;;;;;;;;;;;14.84;71.39;101088.66;1267777;23;637;-68
2023/03/21 04:02:19;;;;;;;;;;;;;;;14.85;70.93;101084.16;1268529;23;648;-68
2023/03/21 04:03:09;;;;;;;;;;;;;;;14.84;71.08;101088.66;1268456;23;614;-68
2023/03/21 04:04:00;;;;;;;;;;;;;;;14.84;71.10;101079.75;1268385;23;747;-68
2023/03/21 04:04:52;;;;;;;;;;;;;;;14.83;71.11;101078.91;1267657;23;605;-68
2023/03/21 04:05:45;;;;;;;;;;;;;;;14.82;71.35;101082.56;1268698;23;601;-68
2023/03/21 04:06:35;;;;;;;;;;;;;;;14.84;71.20;101082.44;1267622;23;602;-68
2023/03/21 04:07:26;;;;;;;;;;;;;;;14.87;70.97;101076.81;1267498;23;579;-68
2023/03/21 04:08:17;;;;;;;;;;;;;;;14.86;71.13;101075.13;1268322;23;621;-68
2023/03/21 04:09:07;;;;;;;;;;;;;;;14.85;70.93;101079.63;1266962;23;652;-69
2023/03/21 04:09:58;;;;;;;;;;;;;;;14.87;70.90;101083.03;1267664;23;644;-68
2023/03/21 04:10:48;;;;;;;;;;;;;;;14.84;70.97;101077.94;1267648;23;677;-68
2023/03/21 04:11:38;;;;;;;;;;;;;;;14.83;71.28;101078.03;1267627;23;667;-68
2023/03/21 04:12:29;;;;;;;;;;;;;;;14.80;71.35;101076.47;1267527;23;648;-68
2023/03/21 04:13:19;;;;;;;;;;;;;;;14.81;71.23;101077.31;1267475;23;665;-68
2023/03/21 04:14:10;;;;;;;;;;;;;;;14.80;71.06;101071.09;1267634;23;605;-68
2023/03/21 04:15:00;;;;;;;;;;;;;;;14.81;71.19;101078.16;1267638;23;640;-68
2023/03/21 04:15:50;;;;;;;;;;;;;;;14.83;71.18;101076.22;1267607;23;766;-68
2023/03/21 04:16:41;;;;;;;;;;;;;;;14.83;70.95;101075.38;1267629;23;656;-68
2023/03/21 04:17:32;;;;;;;;;;;;;;;14.83;71.41;101076.22;1267575;23;621;-68
2023/03/21 04:18:22;;;;;;;;;;;;;;;14.83;71.28;101072.69;1268437;23;632;-68
2023/03/21 04:19:14;;;;;;;;;;;;;;;14.83;71.04;101075.38;1267533;23;672;-68
2023/03/21 04:20:06;;;;;;;;;;;;;;;14.83;71.21;101076.22;1264627;23;661;-68
2023/03/21 04:20:56;;;;;;;;;;;;;;;14.80;71.15;101071.09;1267721;23;646;-68
2023/03/21 04:21:47;;;;;;;;;;;;;;;14.82;70.96;101069.16;1268533;23;644;-68
2023/03/21 04:22:37;;;;;;;;;;;;;;;14.83;71.39;101070.00;1267607;23;688;-68
2023/03/21 04:23:28;;;;;;;;;;;;;;;14.83;71.27;101070.84;1266976;23;641;-68
2023/03/21 04:24:19;;;;;;;;;;;;;;;14.83;70.89;101076.22;1264683;23;621;-68
2023/03/21 04:25:09;;;;;;;;;;;;;;;14.82;71.21;101071.81;1267551;23;648;-68
2023/03/21 04:26:00;;;;;;;;;;;;;;;14.80;71.41;101071.09;1267553;23;617;-68
2023/03/21 04:26:52;;;;;;;;;;;;;;;14.82;71.44;101068.28;1267712;23;656;-68
2023/03/21 04:27:45;;;;;;;;;;;;;;;14.83;71.02;101075.38;1264810;23;725;-68
2023/03/21 04:28:36;;;;;;;;;;;;;;;14.80;71.00;101071.09;1264482;23;645;-68